Tasman — ZDKI2 — position and weather

sailwx.info

Track history (hours):
 
Tides and Currents Weather Stations Pressure Air Temp Water Temp Dewpoint Dewpoint Depression Visibility Wind Speed Wind Dir Waves Ship Positions

Tasman

Last reported at 2014-Oct-30 22:23 UTC. Time now 2014-Oct-31 12:57 UTC.
Position N 36°45' W 009°30'.

Length 90 m; draft 4 m.

Type: Ship. MMSI: 23617000.

Date/timePositionNaut miles runAvg speedWind from/ knotsBaromVisibWave heightAir tempDewpointWater temp
2014-Oct-30 22:23N 36°45' W 009°30'4510.5
2014-Oct-30 18:06N 37°28' W 009°46'610.5
2014-Oct-30 17:33N 37°34' W 009°48'1110.2
2014-Oct-30 16:31N 37°44' W 009°51'389 8.9
2014-Oct-28 21:03N 43°47' W 006°50'5211.1
2014-Oct-28 16:24N 43°37' W 005°40'3 3.8
2014-Oct-28 15:32N 43°34' W 005°42'0 0.0
2014-Oct-28 14:13N 43°34' W 005°42'0 0.0
2014-Oct-28 13:31N 43°34' W 005°42'0 0.0
2014-Oct-28 12:30N 43°34' W 005°42'0 0.0
2014-Oct-28 11:24N 43°34' W 005°42'0 0.0
2014-Oct-28 10:29N 43°34' W 005°42'0 0.0
2014-Oct-28 09:29N 43°34' W 005°42'0 0.0
2014-Oct-28 08:29N 43°34' W 005°42'0 0.0
2014-Oct-28 07:28N 43°34' W 005°42'0 0.0
2014-Oct-28 06:28N 43°34' W 005°42'0 0.0
2014-Oct-28 05:33N 43°34' W 005°42'0 0.0
2014-Oct-28 04:33N 43°34' W 005°42'0 0.0
2014-Oct-28 03:32N 43°34' W 005°42'0 0.0
2014-Oct-28 02:32N 43°34' W 005°42'0 0.0
2014-Oct-28 01:32N 43°34' W 005°42'0 0.0
2014-Oct-28 00:31N 43°34' W 005°42'0 0.0
2014-Oct-27 23:07N 43°34' W 005°42'0 0.0
2014-Oct-27 22:24N 43°34' W 005°42'0 0.0
2014-Oct-27 21:30N 43°34' W 005°42'0 0.0
2014-Oct-27 20:23N 43°34' W 005°42'0 0.0
2014-Oct-27 19:29N 43°34' W 005°42'0 0.0
2014-Oct-27 18:29N 43°34' W 005°42'0 0.0
2014-Oct-27 15:33N 43°34' W 005°42'0 0.0
2014-Oct-27 13:26N 43°34' W 005°42'0 0.0
2014-Oct-27 12:32N 43°34' W 005°42'0 0.0
2014-Oct-27 11:32N 43°34' W 005°42'0 0.0
2014-Oct-27 10:25N 43°34' W 005°42'0 0.0
2014-Oct-27 09:25N 43°34' W 005°42'0 0.0
2014-Oct-27 08:27N 43°34' W 005°42'0 0.0
2014-Oct-27 07:30N 43°34' W 005°42'0 0.0
2014-Oct-27 06:23N 43°34' W 005°42'0 0.0
2014-Oct-27 05:23N 43°34' W 005°42'0 0.0
2014-Oct-27 04:28N 43°34' W 005°42'0 0.0
2014-Oct-27 03:28N 43°34' W 005°42'0 0.0
2014-Oct-27 02:28N 43°34' W 005°42'0 0.0
2014-Oct-27 01:33N 43°34' W 005°42'0 0.0
2014-Oct-27 00:33N 43°34' W 005°42'0 0.0
2014-Oct-26 22:32N 43°34' W 005°42'0 0.0
2014-Oct-26 21:32N 43°34' W 005°42'1 0.9
2014-Oct-26 20:33N 43°34' W 005°41'1110.8
2014-Oct-26 19:33N 43°45' W 005°41'1412.8
2014-Oct-26 18:29N 43°59' W 005°43'58011.6
2014-Oct-24 16:33N 53°34' W 004°00'1313.3
2014-Oct-24 15:33N 53°34' W 003°38'1212.1
2014-Oct-24 14:33N 53°32' W 003°18'1211.6
2014-Oct-24 13:33N 53°26' W 003°01'7 7.1
2014-Oct-24 12:30N 53°19' W 002°57'4 3.7
2014-Oct-24 11:28N 53°17' W 002°51'  
Track history (hours):
 
Tides and Currents Weather Stations Pressure Air Temp Water Temp Dewpoint Dewpoint Depression Visibility Wind Speed Wind Dir Waves Ship Positions

Tasman

Last reported at 2014-Oct-30 22:23 UTC. Time now 2014-Oct-31 12:57 UTC.
Position N 36°45' W 009°30'.

Length 90 m; draft 4 m.

Type: Ship. MMSI: 23617000.

Date/timePositionNaut miles runAvg speedWind from/ knotsBaromVisibWave heightAir tempDewpointWater temp
2014-Oct-30 22:23N 36°45' W 009°30'4510.5
2014-Oct-30 18:06N 37°28' W 009°46'610.5
2014-Oct-30 17:33N 37°34' W 009°48'1110.2
2014-Oct-30 16:31N 37°44' W 009°51'389 8.9
2014-Oct-28 21:03N 43°47' W 006°50'5211.1
2014-Oct-28 16:24N 43°37' W 005°40'3 3.8
2014-Oct-28 15:32N 43°34' W 005°42'0 0.0
2014-Oct-28 14:13N 43°34' W 005°42'0 0.0
2014-Oct-28 13:31N 43°34' W 005°42'0 0.0
2014-Oct-28 12:30N 43°34' W 005°42'0 0.0
2014-Oct-28 11:24N 43°34' W 005°42'0 0.0
2014-Oct-28 10:29N 43°34' W 005°42'0 0.0
2014-Oct-28 09:29N 43°34' W 005°42'0 0.0
2014-Oct-28 08:29N 43°34' W 005°42'0 0.0
2014-Oct-28 07:28N 43°34' W 005°42'0 0.0
2014-Oct-28 06:28N 43°34' W 005°42'0 0.0
2014-Oct-28 05:33N 43°34' W 005°42'0 0.0
2014-Oct-28 04:33N 43°34' W 005°42'0 0.0
2014-Oct-28 03:32N 43°34' W 005°42'0 0.0
2014-Oct-28 02:32N 43°34' W 005°42'0 0.0
2014-Oct-28 01:32N 43°34' W 005°42'0 0.0
2014-Oct-28 00:31N 43°34' W 005°42'0 0.0
2014-Oct-27 23:07N 43°34' W 005°42'0 0.0
2014-Oct-27 22:24N 43°34' W 005°42'0 0.0
2014-Oct-27 21:30N 43°34' W 005°42'0 0.0
2014-Oct-27 20:23N 43°34' W 005°42'0 0.0
2014-Oct-27 19:29N 43°34' W 005°42'0 0.0
2014-Oct-27 18:29N 43°34' W 005°42'0 0.0
2014-Oct-27 15:33N 43°34' W 005°42'0 0.0
2014-Oct-27 13:26N 43°34' W 005°42'0 0.0
2014-Oct-27 12:32N 43°34' W 005°42'0 0.0
2014-Oct-27 11:32N 43°34' W 005°42'0 0.0
2014-Oct-27 10:25N 43°34' W 005°42'0 0.0
2014-Oct-27 09:25N 43°34' W 005°42'0 0.0
2014-Oct-27 08:27N 43°34' W 005°42'0 0.0
2014-Oct-27 07:30N 43°34' W 005°42'0 0.0
2014-Oct-27 06:23N 43°34' W 005°42'0 0.0
2014-Oct-27 05:23N 43°34' W 005°42'0 0.0
2014-Oct-27 04:28N 43°34' W 005°42'0 0.0
2014-Oct-27 03:28N 43°34' W 005°42'0 0.0
2014-Oct-27 02:28N 43°34' W 005°42'0 0.0
2014-Oct-27 01:33N 43°34' W 005°42'0 0.0
2014-Oct-27 00:33N 43°34' W 005°42'0 0.0
2014-Oct-26 22:32N 43°34' W 005°42'0 0.0
2014-Oct-26 21:32N 43°34' W 005°42'1 0.9
2014-Oct-26 20:33N 43°34' W 005°41'1110.8
2014-Oct-26 19:33N 43°45' W 005°41'1412.8
2014-Oct-26 18:29N 43°59' W 005°43'58011.6
2014-Oct-24 16:33N 53°34' W 004°00'1313.3
2014-Oct-24 15:33N 53°34' W 003°38'1212.1
2014-Oct-24 14:33N 53°32' W 003°18'1211.6
2014-Oct-24 13:33N 53°26' W 003°01'7 7.1
2014-Oct-24 12:30N 53°19' W 002°57'4 3.7
2014-Oct-24 11:28N 53°17' W 002°51'  

Dump ship's entire track history